Time;durP1;ratioP1;P1;durP2;ratioP2;P2;SDS_P1;SDS_P2;PMS_P1;PMS_P2;Temp;Humidity;BMP_temperature;BMP_pressure;BME280_temperature;BME280_humidity;BME280_pressure;Samples;Min_cycle;Max_cycle;Signal;HPM_P1;HPM_P2
2021/12/11 00:01:18;;;;;;;25.53;17.53;;;;;;;;;;5074686;28;20473;-57
2021/12/11 00:03:45;;;;;;;25.77;18.17;;;;;;;;;;5074771;28;20453;-56
2021/12/11 00:06:12;;;;;;;22.40;17.03;;;;;;;;;;5074411;28;20553;-55
2021/12/11 00:08:39;;;;;;;24.60;17.23;;;;;;;;;;5074574;28;20957;-56
2021/12/11 00:11:07;;;;;;;25.97;18.97;;;;;;;;;;5074486;28;20491;-56
2021/12/11 00:13:36;;;;;;;24.67;16.80;;;;;;;;;;5074700;28;20926;-56
2021/12/11 00:16:04;;;;;;;26.80;18.07;;;;;;;;;;5074446;28;20525;-55
2021/12/11 00:18:31;;;;;;;27.67;18.37;;;;;;;;;;5074466;28;20468;-56
2021/12/11 00:20:58;;;;;;;28.80;18.40;;;;;;;;;;5074227;28;20474;-57
2021/12/11 00:23:27;;;;;;;27.43;17.80;;;;;;;;;;5074344;28;20472;-56
2021/12/11 00:25:53;;;;;;;25.17;17.40;;;;;;;;;;5074359;28;20484;-57
2021/12/11 00:28:19;;;;;;;24.73;17.07;;;;;;;;;;5074246;28;20445;-56
2021/12/11 00:30:46;;;;;;;24.87;17.87;;;;;;;;;;5074100;28;20927;-57
2021/12/11 00:33:15;;;;;;;28.03;18.40;;;;;;;;;;5074243;28;20993;-57
2021/12/11 00:35:41;;;;;;;25.87;18.43;;;;;;;;;;5074227;28;20951;-57
2021/12/11 00:38:08;;;;;;;24.97;18.17;;;;;;;;;;5073651;28;20480;-57
2021/12/11 00:40:36;;;;;;;26.37;18.43;;;;;;;;;;5073408;28;21006;-56
2021/12/11 00:43:04;;;;;;;23.53;17.20;;;;;;;;;;5073989;28;20856;-56
2021/12/11 00:45:32;;;;;;;29.50;18.53;;;;;;;;;;5074145;28;20445;-57
2021/12/11 00:48:00;;;;;;;25.43;18.20;;;;;;;;;;5073584;28;20434;-57
2021/12/11 00:50:28;;;;;;;23.47;16.80;;;;;;;;;;5071612;28;20448;-60
2021/12/11 00:52:56;;;;;;;27.47;18.60;;;;;;;;;;5073751;28;20442;-58
2021/12/11 00:55:23;;;;;;;27.87;17.20;;;;;;;;;;5073517;28;20477;-61
2021/12/11 00:57:51;;;;;;;24.63;16.40;;;;;;;;;;5071927;28;20429;-62
2021/12/11 01:00:19;;;;;;;22.90;16.00;;;;;;;;;;5073679;28;20434;-59
2021/12/11 01:02:46;;;;;;;23.87;16.23;;;;;;;;;;5073701;28;20426;-60
2021/12/11 01:05:12;;;;;;;25.57;17.60;;;;;;;;;;5073093;28;20808;-59
2021/12/11 01:07:40;;;;;;;24.90;16.93;;;;;;;;;;5073434;28;20481;-59
2021/12/11 01:10:10;;;;;;;22.90;16.53;;;;;;;;;;5073392;28;20445;-60
2021/12/11 01:12:46;;;;;;;25.53;17.77;;;;;;;;;;5073494;28;20932;-58
2021/12/11 01:15:15;;;;;;;24.43;16.73;;;;;;;;;;5073462;28;20434;-59
2021/12/11 01:17:47;;;;;;;27.70;18.50;;;;;;;;;;5073487;28;20441;-58
2021/12/11 01:20:16;;;;;;;30.70;19.20;;;;;;;;;;5071521;28;20803;-59
2021/12/11 01:22:43;;;;;;;25.43;18.17;;;;;;;;;;5073389;28;20461;-58
2021/12/11 01:25:11;;;;;;;25.47;17.77;;;;;;;;;;5073072;28;20454;-59
2021/12/11 01:27:39;;;;;;;29.17;18.57;;;;;;;;;;5073185;28;20516;-58
2021/12/11 01:30:07;;;;;;;25.70;17.77;;;;;;;;;;5073191;28;20434;-60
2021/12/11 01:32:34;;;;;;;25.53;17.47;;;;;;;;;;5073105;28;20540;-60
2021/12/11 01:35:01;;;;;;;28.30;18.90;;;;;;;;;;5072938;28;20439;-58
2021/12/11 01:37:27;;;;;;;29.83;18.97;;;;;;;;;;5072587;28;20477;-59
2021/12/11 01:39:54;;;;;;;27.17;18.73;;;;;;;;;;5072776;28;20438;-58
2021/12/11 01:42:22;;;;;;;26.43;18.97;;;;;;;;;;5072572;28;20972;-59
2021/12/11 01:44:49;;;;;;;24.93;18.30;;;;;;;;;;5072785;28;20877;-59
2021/12/11 01:47:16;;;;;;;27.70;18.70;;;;;;;;;;5072665;28;20869;-59
2021/12/11 01:49:45;;;;;;;30.07;19.90;;;;;;;;;;5072761;28;20491;-58
2021/12/11 01:52:13;;;;;;;29.97;19.53;;;;;;;;;;5072389;28;20426;-59
2021/12/11 01:54:42;;;;;;;27.77;18.67;;;;;;;;;;5072582;28;20434;-59
2021/12/11 01:57:12;;;;;;;29.50;19.50;;;;;;;;;;5072352;28;20438;-59
2021/12/11 01:59:40;;;;;;;30.67;19.43;;;;;;;;;;5071988;28;20445;-60
2021/12/11 02:02:07;;;;;;;26.90;18.67;;;;;;;;;;5072182;28;20474;-59
2021/12/11 02:04:35;;;;;;;28.43;18.63;;;;;;;;;;5072389;28;20899;-59
2021/12/11 02:07:02;;;;;;;27.97;18.83;;;;;;;;;;5072492;28;20446;-60
2021/12/11 02:09:30;;;;;;;26.87;18.83;;;;;;;;;;5072242;28;20438;-59
2021/12/11 02:12:01;;;;;;;26.90;18.33;;;;;;;;;;5072299;28;20446;-59
2021/12/11 02:14:35;;;;;;;27.40;19.00;;;;;;;;;;5072239;28;20434;-61
2021/12/11 02:17:02;;;;;;;24.00;17.67;;;;;;;;;;5072329;28;20541;-60
2021/12/11 02:19:32;;;;;;;27.93;18.90;;;;;;;;;;5072215;28;20430;-59
2021/12/11 02:22:07;;;;;;;28.53;19.10;;;;;;;;;;5072318;28;20531;-61
2021/12/11 02:24:34;;;;;;;25.87;19.13;;;;;;;;;;5072255;28;20544;-60
2021/12/11 02:27:01;;;;;;;25.60;18.70;;;;;;;;;;5071945;28;20799;-60
2021/12/11 02:29:29;;;;;;;26.43;18.47;;;;;;;;;;5071994;28;20441;-60
2021/12/11 02:31:58;;;;;;;31.03;19.03;;;;;;;;;;5072102;28;20499;-60
2021/12/11 02:34:26;;;;;;;28.50;19.37;;;;;;;;;;5071899;28;20426;-59
2021/12/11 02:36:54;;;;;;;25.30;18.77;;;;;;;;;;5071999;28;20438;-59
2021/12/11 02:39:23;;;;;;;28.87;18.87;;;;;;;;;;5071708;28;20472;-60
2021/12/11 02:41:53;;;;;;;26.97;18.53;;;;;;;;;;5071903;28;20535;-59
2021/12/11 02:44:21;;;;;;;30.40;18.23;;;;;;;;;;5071808;28;20924;-59
2021/12/11 02:46:52;;;;;;;24.93;17.80;;;;;;;;;;5071955;28;20831;-60
2021/12/11 02:49:20;;;;;;;26.10;18.30;;;;;;;;;;5071832;28;20433;-59
2021/12/11 02:51:51;;;;;;;24.37;18.40;;;;;;;;;;5070269;28;20438;-60
2021/12/11 02:54:19;;;;;;;26.70;18.43;;;;;;;;;;5071440;28;21171;-59
2021/12/11 02:56:49;;;;;;;23.60;17.47;;;;;;;;;;5071875;28;20585;-59
2021/12/11 02:59:17;;;;;;;28.87;18.60;;;;;;;;;;5071824;28;20480;-59
2021/12/11 03:01:45;;;;;;;24.47;17.80;;;;;;;;;;5071550;28;20477;-59
2021/12/11 03:04:22;;;;;;;26.63;18.23;;;;;;;;;;5071606;28;21027;-59
2021/12/11 03:06:51;;;;;;;28.20;18.30;;;;;;;;;;5071544;28;20469;-60
2021/12/11 03:09:19;;;;;;;29.43;18.97;;;;;;;;;;5071589;28;20468;-59
2021/12/11 03:11:45;;;;;;;25.50;17.63;;;;;;;;;;5073480;28;20442;-59
2021/12/11 03:14:14;;;;;;;27.13;19.23;;;;;;;;;;5073904;28;20442;-59
2021/12/11 03:16:41;;;;;;;26.33;17.83;;;;;;;;;;5075566;28;20863;-58
2021/12/11 03:19:08;;;;;;;27.03;18.43;;;;;;;;;;5075633;28;20449;-59
2021/12/11 03:21:35;;;;;;;25.50;17.87;;;;;;;;;;5075561;28;20496;-60
2021/12/11 03:24:01;;;;;;;28.40;18.10;;;;;;;;;;5075643;28;20425;-59
2021/12/11 03:26:27;;;;;;;25.93;18.30;;;;;;;;;;5075260;28;20434;-59
2021/12/11 03:28:53;;;;;;;27.10;18.50;;;;;;;;;;5075425;28;20983;-59
2021/12/11 03:31:21;;;;;;;28.07;18.67;;;;;;;;;;5075442;28;20426;-59
2021/12/11 03:33:48;;;;;;;33.70;21.10;;;;;;;;;;5075403;28;20443;-60
2021/12/11 03:36:16;;;;;;;26.63;18.67;;;;;;;;;;5075192;28;20453;-59
2021/12/11 03:38:43;;;;;;;29.57;19.20;;;;;;;;;;5074850;28;20477;-60
2021/12/11 03:41:09;;;;;;;31.47;19.67;;;;;;;;;;5074871;28;20476;-59
2021/12/11 03:43:36;;;;;;;25.97;18.50;;;;;;;;;;5075073;28;20476;-59
2021/12/11 03:46:07;;;;;;;29.80;19.80;;;;;;;;;;5075102;28;20445;-60
2021/12/11 03:48:36;;;;;;;32.20;20.47;;;;;;;;;;5074969;28;20491;-58
2021/12/11 03:51:03;;;;;;;28.67;18.43;;;;;;;;;;5074891;28;20853;-60
2021/12/11 03:53:29;;;;;;;27.83;18.93;;;;;;;;;;5074913;28;20429;-59
2021/12/11 03:55:56;;;;;;;26.63;18.57;;;;;;;;;;5074663;28;20454;-61
2021/12/11 03:58:23;;;;;;;28.83;19.50;;;;;;;;;;5074672;28;20445;-61
2021/12/11 04:00:50;;;;;;;25.13;18.33;;;;;;;;;;5074588;28;21020;-60
2021/12/11 04:03:18;;;;;;;29.93;18.50;;;;;;;;;;5074940;28;20430;-60
2021/12/11 04:05:49;;;;;;;28.80;18.87;;;;;;;;;;5074753;28;20458;-59
2021/12/11 04:08:18;;;;;;;28.17;19.40;;;;;;;;;;5074637;28;20444;-60
2021/12/11 04:10:45;;;;;;;26.57;18.90;;;;;;;;;;5074575;28;20438;-59
2021/12/11 04:13:13;;;;;;;26.43;18.40;;;;;;;;;;5074371;28;20950;-59
2021/12/11 04:15:40;;;;;;;27.83;17.83;;;;;;;;;;5074434;28;20503;-60
2021/12/11 04:18:07;;;;;;;27.40;18.70;;;;;;;;;;5074228;28;20430;-60
2021/12/11 04:20:37;;;;;;;26.97;18.50;;;;;;;;;;5074145;28;20917;-60
2021/12/11 04:23:05;;;;;;;25.33;17.90;;;;;;;;;;5073450;28;20433;-60
2021/12/11 04:25:31;;;;;;;26.17;17.57;;;;;;;;;;5072889;28;20486;-60
2021/12/11 04:27:57;;;;;;;27.23;18.20;;;;;;;;;;5074241;28;20481;-60
2021/12/11 04:30:24;;;;;;;26.50;18.37;;;;;;;;;;5074122;28;20469;-60
2021/12/11 04:32:51;;;;;;;26.23;17.67;;;;;;;;;;5074131;28;20438;-59
2021/12/11 04:35:17;;;;;;;25.47;17.43;;;;;;;;;;5073912;28;20796;-60
2021/12/11 04:37:44;;;;;;;25.23;17.57;;;;;;;;;;5073923;28;20473;-60
2021/12/11 04:40:13;;;;;;;25.07;17.70;;;;;;;;;;5073804;28;20438;-60
2021/12/11 04:45:21;;;;;;;27.90;18.00;;;;;;;;;;5073793;28;20516;-60
2021/12/11 04:47:56;;;;;;;31.27;18.87;;;;;;;;;;5073726;28;21061;-59
2021/12/11 04:50:31;;;;;;;24.57;18.10;;;;;;;;;;5073638;28;20429;-60
2021/12/11 04:52:59;;;;;;;28.80;18.47;;;;;;;;;;5072423;28;20846;-59
2021/12/11 04:55:43;;;;;;;26.90;19.03;;;;;;;;;;5073645;28;20434;-60
2021/12/11 05:01:06;;;;;;;27.20;18.47;;;;;;;;;;5073576;28;20524;-58
2021/12/11 05:04:33;;;;;;;24.97;18.10;;;;;;;;;;5073675;28;20528;-59
2021/12/11 05:11:35;;;;;;;30.07;19.37;;;;;;;;;;5073462;28;20434;-59
2021/12/11 05:14:01;;;;;;;29.13;19.20;;;;;;;;;;5073227;28;20434;-58
2021/12/11 05:16:27;;;;;;;30.17;19.40;;;;;;;;;;5073146;28;20429;-59
2021/12/11 05:18:53;;;;;;;27.53;18.00;;;;;;;;;;5073210;28;20204;-59
2021/12/11 05:21:19;;;;;;;29.33;20.33;;;;;;;;;;5073006;28;20470;-59
2021/12/11 05:23:46;;;;;;;28.33;19.07;;;;;;;;;;5073259;28;20445;-59
2021/12/11 05:26:13;;;;;;;28.03;19.17;;;;;;;;;;5072924;28;20444;-60
2021/12/11 05:28:40;;;;;;;27.47;19.10;;;;;;;;;;5073146;28;20474;-60
2021/12/11 05:31:08;;;;;;;28.70;18.23;;;;;;;;;;5072910;28;20458;-60
2021/12/11 05:33:34;;;;;;;28.33;19.27;;;;;;;;;;5072833;28;20908;-60
2021/12/11 05:36:00;;;;;;;29.80;19.90;;;;;;;;;;5072694;28;20446;-60
2021/12/11 05:38:26;;;;;;;29.20;18.83;;;;;;;;;;5072275;28;20470;-60
2021/12/11 05:40:54;;;;;;;27.83;19.17;;;;;;;;;;5072557;28;20442;-60
2021/12/11 05:43:20;;;;;;;28.90;19.10;;;;;;;;;;5072589;28;20438;-59
2021/12/11 05:45:47;;;;;;;27.13;18.80;;;;;;;;;;5072769;28;20434;-59
2021/12/11 05:48:15;;;;;;;27.80;19.47;;;;;;;;;;5072623;28;20818;-59
2021/12/11 05:50:43;;;;;;;29.73;18.83;;;;;;;;;;5072553;28;20458;-59
2021/12/11 05:53:09;;;;;;;29.73;18.80;;;;;;;;;;5072334;28;20457;-59
2021/12/11 05:55:36;;;;;;;31.50;19.77;;;;;;;;;;5072505;28;20434;-60
2021/12/11 05:58:10;;;;;;;30.90;20.37;;;;;;;;;;5072484;28;20511;-59
2021/12/11 06:00:38;;;;;;;29.13;20.07;;;;;;;;;;5072285;28;20442;-59
2021/12/11 06:03:06;;;;;;;27.60;18.43;;;;;;;;;;5072260;28;20442;-59
2021/12/11 06:05:33;;;;;;;28.90;18.50;;;;;;;;;;5072241;28;20465;-60
2021/12/11 06:08:00;;;;;;;30.20;19.60;;;;;;;;;;5071846;28;20468;-58
2021/12/11 06:10:27;;;;;;;27.57;18.57;;;;;;;;;;5072068;28;20459;-58
2021/12/11 06:12:55;;;;;;;30.97;20.50;;;;;;;;;;5071941;28;20791;-58
2021/12/11 06:15:24;;;;;;;28.87;18.90;;;;;;;;;;5072125;28;20479;-59
2021/12/11 06:17:50;;;;;;;31.00;20.13;;;;;;;;;;5072075;28;20434;-59
2021/12/11 06:20:19;;;;;;;31.43;18.93;;;;;;;;;;5072092;28;20430;-60
2021/12/11 06:22:45;;;;;;;28.40;18.67;;;;;;;;;;5072140;28;20930;-60
2021/12/11 06:25:13;;;;;;;27.30;19.37;;;;;;;;;;5071781;28;20440;-59
2021/12/11 06:27:40;;;;;;;28.07;19.93;;;;;;;;;;5071982;28;20446;-60
2021/12/11 06:30:07;;;;;;;31.27;19.80;;;;;;;;;;5071816;28;20982;-58
2021/12/11 06:32:33;;;;;;;29.63;19.50;;;;;;;;;;5071758;28;20430;-59
2021/12/11 06:35:05;;;;;;;29.30;18.43;;;;;;;;;;5072103;28;20850;-59
2021/12/11 06:37:32;;;;;;;29.17;18.83;;;;;;;;;;5070435;28;20572;-58
2021/12/11 06:39:58;;;;;;;29.67;19.37;;;;;;;;;;5071913;28;20434;-60
2021/12/11 06:42:24;;;;;;;30.00;18.83;;;;;;;;;;5071524;28;20995;-60
2021/12/11 06:44:50;;;;;;;29.70;19.00;;;;;;;;;;5071767;28;20443;-59
2021/12/11 06:47:17;;;;;;;28.37;18.97;;;;;;;;;;5071337;28;20475;-61
2021/12/11 06:49:44;;;;;;;28.80;18.03;;;;;;;;;;5071767;28;20260;-59
2021/12/11 06:52:16;;;;;;;29.27;19.07;;;;;;;;;;5071548;28;20805;-58
2021/12/11 06:54:44;;;;;;;28.47;17.80;;;;;;;;;;5071572;28;20449;-59
2021/12/11 06:57:10;;;;;;;26.60;18.10;;;;;;;;;;5071752;28;20489;-59
2021/12/11 06:59:36;;;;;;;27.23;18.43;;;;;;;;;;5071697;28;20517;-59
2021/12/11 07:02:03;;;;;;;29.13;19.13;;;;;;;;;;5071494;28;20485;-59
2021/12/11 07:04:29;;;;;;;25.80;17.33;;;;;;;;;;5071420;28;20425;-60
2021/12/11 07:06:56;;;;;;;29.33;17.63;;;;;;;;;;5071371;28;20951;-58
2021/12/11 07:09:23;;;;;;;27.30;17.93;;;;;;;;;;5071079;28;20532;-58
2021/12/11 07:11:52;;;;;;;29.03;18.37;;;;;;;;;;5071445;28;20462;-59
2021/12/11 07:14:18;;;;;;;26.10;17.73;;;;;;;;;;5071315;28;20525;-60
2021/12/11 07:16:45;;;;;;;32.13;19.53;;;;;;;;;;5071296;28;20460;-59
2021/12/11 07:19:11;;;;;;;25.90;17.83;;;;;;;;;;5071098;28;20433;-59
2021/12/11 07:21:37;;;;;;;25.70;16.57;;;;;;;;;;5071256;28;20839;-60
2021/12/11 07:24:04;;;;;;;26.67;18.30;;;;;;;;;;5071250;28;20426;-59
2021/12/11 07:26:33;;;;;;;27.20;17.73;;;;;;;;;;5071281;28;20445;-59
2021/12/11 07:29:03;;;;;;;28.33;18.73;;;;;;;;;;5071295;28;20430;-59
2021/12/11 07:31:29;;;;;;;24.20;17.80;;;;;;;;;;5071260;28;21005;-60
2021/12/11 07:33:56;;;;;;;31.80;19.17;;;;;;;;;;5071265;28;20440;-60
2021/12/11 07:36:23;;;;;;;29.13;19.17;;;;;;;;;;5070980;28;20917;-59
2021/12/11 07:38:49;;;;;;;29.97;17.27;;;;;;;;;;5070914;28;20505;-60
2021/12/11 07:41:16;;;;;;;30.23;18.13;;;;;;;;;;5071232;28;20489;-59
2021/12/11 07:43:43;;;;;;;30.00;16.97;;;;;;;;;;5071132;28;20223;-59
2021/12/11 07:46:15;;;;;;;28.70;18.07;;;;;;;;;;5070939;28;20453;-59
2021/12/11 07:48:42;;;;;;;28.83;18.80;;;;;;;;;;5070948;28;20438;-58
2021/12/11 07:51:08;;;;;;;27.03;18.60;;;;;;;;;;5071150;28;20442;-60
2021/12/11 07:53:34;;;;;;;26.13;17.23;;;;;;;;;;5070972;28;20430;-60
2021/12/11 07:56:01;;;;;;;28.07;18.43;;;;;;;;;;5070962;28;20533;-57
2021/12/11 07:58:31;;;;;;;28.97;18.30;;;;;;;;;;5071928;28;20434;-59
2021/12/11 08:00:57;;;;;;;25.47;17.93;;;;;;;;;;5074495;28;20800;-58
2021/12/11 08:03:25;;;;;;;28.13;18.47;;;;;;;;;;5074340;28;20434;-58
2021/12/11 08:05:52;;;;;;;29.27;17.83;;;;;;;;;;5074485;28;20462;-59
2021/12/11 08:08:18;;;;;;;29.17;18.47;;;;;;;;;;5072834;28;20843;-58
2021/12/11 08:10:46;;;;;;;26.27;18.10;;;;;;;;;;5074538;28;20449;-58
2021/12/11 08:13:12;;;;;;;28.30;18.83;;;;;;;;;;5074351;28;20434;-58
2021/12/11 08:15:39;;;;;;;27.83;16.97;;;;;;;;;;5074276;28;20648;-62
2021/12/11 08:18:07;;;;;;;25.43;17.03;;;;;;;;;;5074399;28;20469;-59
2021/12/11 08:20:35;;;;;;;25.80;16.80;;;;;;;;;;5074328;28;20917;-56
2021/12/11 08:23:01;;;;;;;22.77;16.07;;;;;;;;;;5074406;28;20473;-60
2021/12/11 08:25:28;;;;;;;22.73;16.23;;;;;;;;;;5074097;28;20441;-59
2021/12/11 08:27:55;;;;;;;24.03;15.20;;;;;;;;;;5074256;28;20448;-57
2021/12/11 08:30:21;;;;;;;28.60;15.43;;;;;;;;;;5074001;28;20431;-59
2021/12/11 08:32:47;;;;;;;24.33;15.53;;;;;;;;;;5073714;28;20483;-60
2021/12/11 08:35:13;;;;;;;24.93;16.63;;;;;;;;;;5073979;28;20433;-59
2021/12/11 08:37:42;;;;;;;27.17;16.90;;;;;;;;;;5073808;28;21060;-60
2021/12/11 08:40:11;;;;;;;21.60;16.17;;;;;;;;;;5072805;28;20450;-59
2021/12/11 08:42:37;;;;;;;23.20;16.83;;;;;;;;;;5073962;28;20493;-59
2021/12/11 08:45:06;;;;;;;25.63;17.20;;;;;;;;;;5074074;28;20442;-60
2021/12/11 08:47:36;;;;;;;25.50;17.23;;;;;;;;;;5073840;28;20430;-59
2021/12/11 08:50:03;;;;;;;21.53;16.20;;;;;;;;;;5073988;28;20871;-60
2021/12/11 08:52:32;;;;;;;21.27;14.30;;;;;;;;;;5072463;28;20446;-59
2021/12/11 08:55:00;;;;;;;19.70;14.03;;;;;;;;;;5072738;28;20430;-60
2021/12/11 08:57:28;;;;;;;20.53;14.57;;;;;;;;;;5073370;28;20513;-60
2021/12/11 08:59:55;;;;;;;17.77;13.57;;;;;;;;;;5073501;28;20442;-60
2021/12/11 09:02:23;;;;;;;17.20;13.07;;;;;;;;;;5073195;28;20231;-59
2021/12/11 09:04:53;;;;;;;16.47;12.07;;;;;;;;;;5073314;28;20246;-60
2021/12/11 09:07:21;;;;;;;15.93;12.70;;;;;;;;;;5073124;28;20210;-59
2021/12/11 09:09:50;;;;;;;17.60;13.50;;;;;;;;;;5072745;28;20235;-58
2021/12/11 09:12:21;;;;;;;14.17;12.17;;;;;;;;;;5073013;28;20203;-62
2021/12/11 09:14:48;;;;;;;17.93;12.33;;;;;;;;;;5073244;28;20211;-64
2021/12/11 09:17:17;;;;;;;16.67;12.77;;;;;;;;;;5073014;28;20206;-59
2021/12/11 09:19:44;;;;;;;16.00;13.07;;;;;;;;;;5073250;28;20633;-60
2021/12/11 09:22:14;;;;;;;15.87;12.37;;;;;;;;;;5072871;28;20569;-60
2021/12/11 09:24:41;;;;;;;16.53;12.80;;;;;;;;;;5072781;28;20196;-58
2021/12/11 09:27:11;;;;;;;15.30;11.73;;;;;;;;;;5072953;28;20199;-60
2021/12/11 09:29:40;;;;;;;14.63;12.00;;;;;;;;;;5072662;28;20215;-59
2021/12/11 09:32:10;;;;;;;14.63;11.80;;;;;;;;;;5072696;28;20200;-60
2021/12/11 09:34:50;;;;;;;15.83;12.17;;;;;;;;;;5072506;28;20704;-59
2021/12/11 09:37:17;;;;;;;13.73;11.17;;;;;;;;;;5072672;28;20200;-59
2021/12/11 09:39:44;;;;;;;14.03;11.77;;;;;;;;;;5072766;28;20270;-59
2021/12/11 09:42:10;;;;;;;14.30;12.03;;;;;;;;;;5072507;28;20231;-59
2021/12/11 09:44:39;;;;;;;14.20;11.67;;;;;;;;;;5072539;28;20195;-59
2021/12/11 09:47:08;;;;;;;16.10;12.70;;;;;;;;;;5072470;28;20200;-59
2021/12/11 09:49:36;;;;;;;14.40;12.13;;;;;;;;;;5072370;28;20741;-58
2021/12/11 09:52:15;;;;;;;15.70;11.97;;;;;;;;;;5072527;28;20222;-60
2021/12/11 09:54:42;;;;;;;14.07;11.83;;;;;;;;;;5072399;28;20195;-59
2021/12/11 09:57:09;;;;;;;15.27;12.20;;;;;;;;;;5072354;28;20203;-60
2021/12/11 09:59:37;;;;;;;15.33;12.33;;;;;;;;;;5072244;28;20253;-59
2021/12/11 10:02:05;;;;;;;13.93;12.50;;;;;;;;;;5072251;28;20255;-60
2021/12/11 10:04:35;;;;;;;16.03;12.60;;;;;;;;;;5072130;28;20196;-61
2021/12/11 10:09:37;;;;;;;15.97;13.30;;;;;;;;;;5071987;28;20249;-60
2021/12/11 10:12:05;;;;;;;15.53;12.77;;;;;;;;;;5072063;28;20655;-60
2021/12/11 10:14:32;;;;;;;13.50;11.63;;;;;;;;;;5071998;28;20723;-59
2021/12/11 10:17:00;;;;;;;13.47;11.47;;;;;;;;;;5072180;28;20207;-61
2021/12/11 10:19:29;;;;;;;17.17;12.60;;;;;;;;;;5071905;28;20188;-60
2021/12/11 10:21:58;;;;;;;17.47;13.07;;;;;;;;;;5071219;28;20235;-60
2021/12/11 10:24:26;;;;;;;17.47;13.17;;;;;;;;;;5071722;28;20209;-60
2021/12/11 10:26:59;;;;;;;14.33;12.53;;;;;;;;;;5071906;28;20193;-60
2021/12/11 10:29:25;;;;;;;15.23;12.03;;;;;;;;;;5071802;28;20199;-60
2021/12/11 10:31:53;;;;;;;13.13;11.67;;;;;;;;;;5071890;28;20217;-61
2021/12/11 10:34:21;;;;;;;16.63;12.67;;;;;;;;;;5071692;28;20260;-60
2021/12/11 10:36:50;;;;;;;15.00;11.93;;;;;;;;;;5071899;28;20627;-60
2021/12/11 10:39:16;;;;;;;16.03;12.43;;;;;;;;;;5071796;28;20589;-60
2021/12/11 10:41:43;;;;;;;16.53;13.10;;;;;;;;;;5071537;28;20587;-60
2021/12/11 10:44:11;;;;;;;16.37;13.20;;;;;;;;;;5071884;28;20290;-60
2021/12/11 10:46:40;;;;;;;16.00;12.80;;;;;;;;;;5071615;28;20211;-60
2021/12/11 10:49:08;;;;;;;14.83;12.97;;;;;;;;;;5071523;28;20576;-60
2021/12/11 10:51:39;;;;;;;15.57;12.73;;;;;;;;;;5071343;28;20199;-60
2021/12/11 10:54:07;;;;;;;16.00;12.87;;;;;;;;;;5071786;28;20225;-60
2021/12/11 10:56:33;;;;;;;15.83;12.33;;;;;;;;;;5070262;28;20666;-60
2021/12/11 10:59:01;;;;;;;16.80;12.77;;;;;;;;;;5071607;28;20215;-61
2021/12/11 11:01:29;;;;;;;17.17;13.70;;;;;;;;;;5071603;28;20219;-60
2021/12/11 11:03:57;;;;;;;16.60;13.50;;;;;;;;;;5071645;28;20222;-60
2021/12/11 11:06:23;;;;;;;15.33;12.67;;;;;;;;;;5071378;28;20219;-61
2021/12/11 11:08:50;;;;;;;16.40;13.40;;;;;;;;;;5071429;28;20200;-60
2021/12/11 11:11:20;;;;;;;16.70;13.30;;;;;;;;;;5071491;28;20207;-60
2021/12/11 11:13:46;;;;;;;18.97;14.60;;;;;;;;;;5071639;28;20299;-60
2021/12/11 11:16:12;;;;;;;17.30;13.63;;;;;;;;;;5071278;28;20278;-60
2021/12/11 11:18:39;;;;;;;17.07;13.73;;;;;;;;;;5071510;28;20238;-60
2021/12/11 11:21:08;;;;;;;17.07;13.97;;;;;;;;;;5071358;28;20202;-60
2021/12/11 11:23:34;;;;;;;19.23;14.70;;;;;;;;;;5071263;28;20209;-60
2021/12/11 11:26:01;;;;;;;17.80;13.80;;;;;;;;;;5071267;28;20226;-61
2021/12/11 11:28:32;;;;;;;17.10;13.53;;;;;;;;;;5071167;28;20410;-61
2021/12/11 11:30:59;;;;;;;15.97;13.43;;;;;;;;;;5071116;28;20616;-60
2021/12/11 11:33:26;;;;;;;18.50;13.97;;;;;;;;;;5073788;28;20282;-60
2021/12/11 11:35:52;;;;;;;18.87;13.47;;;;;;;;;;5075007;28;20261;-61
2021/12/11 11:38:19;;;;;;;17.07;13.13;;;;;;;;;;5074952;28;20241;-61
2021/12/11 11:40:47;;;;;;;17.30;13.47;;;;;;;;;;5075400;28;20209;-61
2021/12/11 11:43:14;;;;;;;17.87;14.13;;;;;;;;;;5075177;28;20616;-61
2021/12/11 11:45:42;;;;;;;15.17;12.70;;;;;;;;;;5075078;28;20566;-59
2021/12/11 11:48:08;;;;;;;14.13;11.50;;;;;;;;;;5075153;28;20318;-60
2021/12/11 11:50:38;;;;;;;14.00;11.93;;;;;;;;;;5074972;28;20279;-60
2021/12/11 11:53:04;;;;;;;16.40;12.50;;;;;;;;;;5074989;28;20237;-62
2021/12/11 11:55:38;;;;;;;15.17;12.37;;;;;;;;;;5075057;28;20203;-61
2021/12/11 11:58:04;;;;;;;16.43;14.27;;;;;;;;;;5075048;28;20750;-61
2021/12/11 12:00:32;;;;;;;15.67;12.53;;;;;;;;;;5074824;28;20195;-61
2021/12/11 12:03:00;;;;;;;15.97;12.27;;;;;;;;;;5074932;28;20224;-62
2021/12/11 12:05:26;;;;;;;13.93;11.67;;;;;;;;;;5074649;28;20251;-61
2021/12/11 12:07:53;;;;;;;13.03;11.63;;;;;;;;;;5074604;28;20751;-62
2021/12/11 12:10:21;;;;;;;13.13;11.27;;;;;;;;;;5073280;28;20290;-62
2021/12/11 12:12:47;;;;;;;15.67;12.53;;;;;;;;;;5074609;28;20646;-61
2021/12/11 12:15:17;;;;;;;14.00;11.97;;;;;;;;;;5074677;28;20196;-61
2021/12/11 12:17:43;;;;;;;15.37;12.00;;;;;;;;;;5074645;28;20279;-63
2021/12/11 12:20:12;;;;;;;15.40;11.97;;;;;;;;;;5074596;28;20608;-61
2021/12/11 12:22:39;;;;;;;18.20;11.90;;;;;;;;;;5074151;28;20595;-62
2021/12/11 12:25:05;;;;;;;14.27;12.03;;;;;;;;;;5074469;28;20218;-61
2021/12/11 12:27:33;;;;;;;14.83;11.90;;;;;;;;;;5074471;28;20201;-61
2021/12/11 12:30:01;;;;;;;17.47;11.27;;;;;;;;;;5074513;28;20195;-61
2021/12/11 12:32:29;;;;;;;17.13;12.87;;;;;;;;;;5074324;28;20198;-62
2021/12/11 12:34:58;;;;;;;14.17;11.83;;;;;;;;;;5074522;28;20203;-62
2021/12/11 12:37:25;;;;;;;15.57;12.87;;;;;;;;;;5074028;28;20293;-61
2021/12/11 12:39:53;;;;;;;13.70;11.53;;;;;;;;;;5074343;28;20225;-61
2021/12/11 12:42:27;;;;;;;17.20;13.30;;;;;;;;;;5073981;28;20227;-61
2021/12/11 12:44:54;;;;;;;14.00;11.73;;;;;;;;;;5073495;28;20211;-61
2021/12/11 12:47:23;;;;;;;15.43;11.70;;;;;;;;;;5073885;28;20211;-61
2021/12/11 12:49:50;;;;;;;15.33;12.23;;;;;;;;;;5074073;28;20268;-62
2021/12/11 12:52:17;;;;;;;14.90;12.50;;;;;;;;;;5073851;28;20188;-61
2021/12/11 12:54:45;;;;;;;13.17;11.17;;;;;;;;;;5073830;28;20192;-61
2021/12/11 12:57:15;;;;;;;13.63;11.87;;;;;;;;;;5073757;28;20235;-61
2021/12/11 12:59:43;;;;;;;15.63;11.77;;;;;;;;;;5073656;28;20566;-61
2021/12/11 13:02:11;;;;;;;12.47;10.77;;;;;;;;;;5073446;28;20224;-62
2021/12/11 13:04:39;;;;;;;14.60;11.23;;;;;;;;;;5073428;28;20203;-61
2021/12/11 13:07:07;;;;;;;15.07;11.47;;;;;;;;;;5073347;28;20207;-61
2021/12/11 13:09:40;;;;;;;13.93;11.30;;;;;;;;;;5073008;28;20350;-63
2021/12/11 13:12:10;;;;;;;14.30;11.53;;;;;;;;;;5073386;28;20191;-62
2021/12/11 13:14:37;;;;;;;14.30;11.30;;;;;;;;;;5073490;28;20250;-62
2021/12/11 13:17:05;;;;;;;14.67;11.03;;;;;;;;;;5073556;28;20196;-62
2021/12/11 13:19:33;;;;;;;12.27;10.67;;;;;;;;;;5073511;28;20199;-60
2021/12/11 13:22:00;;;;;;;11.80;10.57;;;;;;;;;;5073209;28;20238;-60
2021/12/11 13:24:26;;;;;;;13.63;10.90;;;;;;;;;;5073057;28;20206;-62
2021/12/11 13:26:54;;;;;;;14.90;10.60;;;;;;;;;;5071252;28;20202;-62
2021/12/11 13:29:22;;;;;;;11.43;10.20;;;;;;;;;;5072891;28;20241;-62
2021/12/11 13:31:49;;;;;;;14.43;12.13;;;;;;;;;;5072990;28;20223;-61
2021/12/11 13:34:15;;;;;;;12.80;11.00;;;;;;;;;;5072876;28;20199;-61
2021/12/11 13:36:42;;;;;;;12.80;10.80;;;;;;;;;;5072685;28;20191;-61
2021/12/11 13:39:11;;;;;;;13.07;10.97;;;;;;;;;;5072509;28;20239;-61
2021/12/11 13:41:39;;;;;;;14.10;11.60;;;;;;;;;;5072696;28;20203;-62
2021/12/11 13:44:05;;;;;;;13.57;10.97;;;;;;;;;;5072631;28;20204;-61
2021/12/11 13:46:33;;;;;;;14.17;11.60;;;;;;;;;;5072429;28;20888;-61
2021/12/11 13:48:58;;;;;;;14.83;11.27;;;;;;;;;;5072479;28;20210;-61
2021/12/11 13:51:27;;;;;;;14.43;11.80;;;;;;;;;;5072454;28;20179;-61
2021/12/11 13:53:53;;;;;;;14.67;10.70;;;;;;;;;;5072260;28;20202;-61
2021/12/11 13:56:21;;;;;;;14.57;11.70;;;;;;;;;;5071355;28;20529;-62
2021/12/11 13:58:47;;;;;;;12.90;11.30;;;;;;;;;;5072289;28;20448;-61
2021/12/11 14:01:15;;;;;;;12.20;10.47;;;;;;;;;;5072249;28;20203;-62
2021/12/11 14:03:43;;;;;;;14.67;11.37;;;;;;;;;;5071884;28;20816;-61
2021/12/11 14:06:12;;;;;;;15.57;11.70;;;;;;;;;;5072093;28;21059;-61
2021/12/11 14:08:39;;;;;;;13.67;10.97;;;;;;;;;;5071849;28;20449;-61
2021/12/11 14:11:06;;;;;;;11.67;10.47;;;;;;;;;;5072114;28;20509;-62
2021/12/11 14:13:32;;;;;;;13.90;11.63;;;;;;;;;;5072068;28;20432;-61
2021/12/11 14:15:59;;;;;;;15.23;11.03;;;;;;;;;;5071975;28;20442;-61
2021/12/11 14:18:25;;;;;;;14.27;11.77;;;;;;;;;;5071762;28;20488;-61
2021/12/11 14:20:54;;;;;;;12.97;10.70;;;;;;;;;;5072307;28;20426;-61
2021/12/11 14:23:21;;;;;;;14.33;11.13;;;;;;;;;;5071742;28;20228;-61
2021/12/11 14:25:48;;;;;;;13.07;11.17;;;;;;;;;;5072039;28;20430;-61
2021/12/11 14:28:17;;;;;;;13.37;11.73;;;;;;;;;;5072173;28;20433;-65
2021/12/11 14:30:46;;;;;;;15.80;11.97;;;;;;;;;;5072076;28;20434;-61
2021/12/11 14:33:12;;;;;;;14.93;11.70;;;;;;;;;;5071814;28;20959;-61